Time;durP1;ratioP1;P1;durP2;ratioP2;P2;SDS_P1;SDS_P2;PMS_P1;PMS_P2;Temp;Humidity;BMP_temperature;BMP_pressure;BME280_temperature;BME280_humidity;BME280_pressure;Samples;Min_cycle;Max_cycle;Signal;HPM_P1;HPM_P2
2023/12/28 00:01:07;;;;;;;4.43;3.20;;;;;;;-143.54;100.00;59916.91;5097871;28;20436;-81
2023/12/28 00:03:33;;;;;;;4.57;2.70;;;;;;;-143.54;100.00;59916.91;5094616;28;20055;-81
2023/12/28 00:05:58;;;;;;;4.07;3.05;;;;;;;-143.54;100.00;59916.91;5099874;28;20110;-81
2023/12/28 00:08:23;;;;;;;4.78;3.05;;;;;;;-143.54;100.00;59916.91;5098022;28;20047;-81
2023/12/28 00:10:48;;;;;;;4.57;3.40;;;;;;;-143.54;100.00;59916.91;5097946;28;20066;-81
2023/12/28 00:13:14;;;;;;;3.47;3.10;;;;;;;-143.54;100.00;59916.91;5099648;28;20024;-81
2023/12/28 00:15:39;;;;;;;4.75;3.38;;;;;;;-143.54;100.00;59916.91;5096937;28;20089;-81
2023/12/28 00:18:04;;;;;;;4.25;3.40;;;;;;;-143.54;100.00;59916.91;5100593;28;20036;-81
2023/12/28 00:20:30;;;;;;;6.50;2.90;;;;;;;-143.54;100.00;59916.91;5103179;28;20157;-81
2023/12/28 00:22:55;;;;;;;4.57;2.90;;;;;;;-143.54;100.00;59916.91;5101074;28;20476;-81
2023/12/28 00:25:21;;;;;;;6.40;2.88;;;;;;;-143.54;100.00;59916.91;5098401;28;20024;-81
2023/12/28 00:27:46;;;;;;;3.65;3.00;;;;;;;-143.54;100.00;59916.91;5099431;28;20495;-81
2023/12/28 00:30:13;;;;;;;4.40;3.60;;;;;;;-143.54;100.00;59916.91;5104895;28;20023;-81
2023/12/28 00:32:38;;;;;;;4.18;3.28;;;;;;;-143.54;100.00;59916.91;5098611;28;20401;-81
2023/12/28 00:35:04;;;;;;;4.50;3.38;;;;;;;-143.54;100.00;59916.91;5096290;28;20467;-81
2023/12/28 00:37:30;;;;;;;6.30;3.30;;;;;;;-143.54;100.00;59916.91;5093147;28;20077;-81
2023/12/28 00:39:56;;;;;;;4.97;3.30;;;;;;;-143.54;100.00;59916.91;5101234;28;20115;-81
2023/12/28 00:42:21;;;;;;;3.92;3.40;;;;;;;-143.54;100.00;59916.91;5100860;28;20115;-81
2023/12/28 00:44:46;;;;;;;3.67;3.13;;;;;;;-143.54;100.00;59916.91;5101592;28;20028;-81
2023/12/28 00:47:11;;;;;;;5.60;3.92;;;;;;;-143.54;100.00;59916.91;5100343;28;20117;-81
2023/12/28 00:49:37;;;;;;;7.18;3.60;;;;;;;-143.54;100.00;59916.91;5097009;28;20060;-81
2023/12/28 00:52:02;;;;;;;4.53;3.53;;;;;;;-143.54;100.00;59916.91;5099843;28;20389;-81
2023/12/28 00:54:28;;;;;;;4.32;3.10;;;;;;;-143.54;100.00;59916.91;5092966;28;20038;-81
2023/12/28 00:56:53;;;;;;;5.68;3.50;;;;;;;-143.54;100.00;59916.91;5101392;28;20062;-81
2023/12/28 00:59:18;;;;;;;5.43;3.50;;;;;;;-143.54;100.00;59916.91;5097225;28;20122;-80
2023/12/28 01:01:44;;;;;;;7.63;3.22;;;;;;;-143.54;100.00;59916.91;5099061;28;20024;-81
2023/12/28 01:04:09;;;;;;;6.60;3.45;;;;;;;-143.54;100.00;59916.91;5094690;28;20054;-81
2023/12/28 01:06:34;;;;;;;5.40;3.47;;;;;;;-143.54;100.00;59916.91;5100723;28;20019;-81
2023/12/28 01:09:00;;;;;;;5.70;3.60;;;;;;;-143.54;100.00;59916.91;5093051;28;20054;-81
2023/12/28 01:11:25;;;;;;;6.30;3.22;;;;;;;-143.54;100.00;59916.91;5096239;28;20034;-81
2023/12/28 01:13:53;;;;;;;5.30;3.22;;;;;;;-143.54;100.00;59916.91;5101511;28;20036;-81
2023/12/28 01:16:19;;;;;;;4.57;3.63;;;;;;;-143.54;100.00;59916.91;5098816;28;20019;-81
2023/12/28 01:18:44;;;;;;;4.53;3.05;;;;;;;-143.54;100.00;59916.91;5095339;28;20486;-81
2023/12/28 01:21:09;;;;;;;5.10;3.45;;;;;;;-143.54;100.00;59916.91;5097056;28;20049;-80
2023/12/28 01:23:35;;;;;;;6.35;3.80;;;;;;;-143.54;100.00;59916.91;5095923;28;20028;-81
2023/12/28 01:26:00;;;;;;;5.35;3.30;;;;;;;-143.54;100.00;59916.91;5095939;28;20028;-81
2023/12/28 01:28:27;;;;;;;5.35;3.30;;;;;;;-143.54;100.00;59916.91;5098040;28;20035;-81
2023/12/28 01:30:52;;;;;;;4.35;3.30;;;;;;;-143.54;100.00;59916.91;5094540;28;20036;-81
2023/12/28 01:33:18;;;;;;;5.82;3.28;;;;;;;-143.54;100.00;59916.91;5101763;28;20099;-81
2023/12/28 01:35:43;;;;;;;6.65;3.58;;;;;;;-143.54;100.00;59916.91;5099399;28;20032;-81
2023/12/28 01:38:08;;;;;;;7.30;3.50;;;;;;;-143.54;100.00;59916.91;5099114;28;20046;-81
2023/12/28 01:40:34;;;;;;;6.85;3.15;;;;;;;-143.54;100.00;59916.91;5101573;28;20464;-81
2023/12/28 01:42:59;;;;;;;3.95;2.97;;;;;;;-143.54;100.00;59916.91;5091968;28;20036;-81
2023/12/28 01:45:26;;;;;;;4.93;3.55;;;;;;;-143.54;100.00;59916.91;5103866;28;20036;-80
2023/12/28 01:47:53;;;;;;;6.25;3.20;;;;;;;-143.54;100.00;59916.91;5098917;28;20056;-81
2023/12/28 01:50:20;;;;;;;6.88;3.25;;;;;;;-143.54;100.00;59916.91;5095085;28;20383;-81
2023/12/28 01:52:46;;;;;;;4.93;3.20;;;;;;;-143.54;100.00;59916.91;5086568;28;20028;-80
2023/12/28 01:55:13;;;;;;;6.00;3.47;;;;;;;-143.54;100.00;59916.91;5095896;28;20410;-80
2023/12/28 01:57:38;;;;;;;4.57;3.38;;;;;;;-143.54;100.00;59916.91;5101152;28;20070;-81
2023/12/28 02:00:04;;;;;;;6.30;3.22;;;;;;;-143.54;100.00;59916.91;5100483;28;20071;-81
2023/12/28 02:02:31;;;;;;;4.70;3.08;;;;;;;-143.54;100.00;59916.91;5101560;28;20028;-81
2023/12/28 02:04:57;;;;;;;4.68;3.15;;;;;;;-143.54;100.00;59916.91;5114503;28;20024;-80
2023/12/28 02:07:24;;;;;;;4.95;3.05;;;;;;;-143.54;100.00;59916.91;5108232;28;20415;-82
2023/12/28 02:09:49;;;;;;;4.72;3.20;;;;;;;-143.54;100.00;59916.91;5099341;28;20055;-81
2023/12/28 02:12:14;;;;;;;5.18;3.70;;;;;;;-143.54;100.00;59916.91;5106366;28;20059;-81
2023/12/28 02:14:40;;;;;;;4.82;3.35;;;;;;;-143.54;100.00;59916.91;5104213;28;20032;-81
2023/12/28 02:17:33;;;;;;;7.43;3.30;;;;;;;-143.54;100.00;59916.91;5104736;28;20384;-81
2023/12/28 02:19:59;;;;;;;4.18;3.22;;;;;;;-143.54;100.00;59916.91;5105353;28;20044;-81
2023/12/28 02:22:25;;;;;;;8.85;3.47;;;;;;;-143.54;100.00;59916.91;5100827;28;20073;-81
2023/12/28 02:25:06;;;;;;;4.10;2.88;;;;;;;-143.54;100.00;59916.91;5096771;28;20043;-81
2023/12/28 02:27:41;;;;;;;8.32;3.35;;;;;;;-143.54;100.00;59916.91;5100692;28;20036;-80
2023/12/28 02:30:08;;;;;;;6.38;3.28;;;;;;;-143.54;100.00;59916.91;5105248;28;20055;-81
2023/12/28 02:32:47;;;;;;;5.85;3.40;;;;;;;-143.54;100.00;59916.91;5095428;28;20058;-80
2023/12/28 02:35:28;;;;;;;6.15;3.17;;;;;;;-143.54;100.00;59916.91;5106237;28;20036;-81
2023/12/28 02:37:58;;;;;;;8.93;2.80;;;;;;;-143.54;100.00;59916.91;5100247;28;20028;-80
2023/12/28 02:40:24;;;;;;;5.22;3.05;;;;;;;-143.54;100.00;59916.91;5101063;28;20028;-81
2023/12/28 02:42:49;;;;;;;6.57;3.15;;;;;;;-143.54;100.00;59916.91;5099813;28;20032;-81
2023/12/28 02:45:15;;;;;;;4.47;2.63;;;;;;;-143.54;100.00;59916.91;5103092;28;20506;-81
2023/12/28 02:47:40;;;;;;;5.55;3.10;;;;;;;-143.54;100.00;59916.91;5098354;28;20021;-80
2023/12/28 02:50:06;;;;;;;5.15;3.30;;;;;;;-143.54;100.00;59916.91;5102530;28;20483;-80
2023/12/28 02:52:31;;;;;;;5.60;2.95;;;;;;;-143.54;100.00;59916.91;5095286;28;20020;-80
2023/12/28 02:54:57;;;;;;;5.13;3.05;;;;;;;-143.54;100.00;59916.91;5103151;28;20107;-80
2023/12/28 02:57:22;;;;;;;4.45;3.13;;;;;;;-143.54;100.00;59916.91;5098530;28;20026;-81
2023/12/28 02:59:47;;;;;;;4.97;2.80;;;;;;;-143.54;100.00;59916.91;5101671;28;20060;-80
2023/12/28 03:02:13;;;;;;;6.35;3.03;;;;;;;-143.54;100.00;59916.91;5097290;28;20059;-80
2023/12/28 03:04:38;;;;;;;5.88;2.90;;;;;;;-143.54;100.00;59916.91;5101414;28;20036;-81
2023/12/28 03:07:08;;;;;;;6.25;2.85;;;;;;;-143.54;100.00;59916.91;5093914;28;20032;-81
2023/12/28 03:09:34;;;;;;;4.25;2.95;;;;;;;-143.54;100.00;59916.91;5103030;28;20043;-80
2023/12/28 03:12:00;;;;;;;6.43;2.72;;;;;;;-143.54;100.00;59916.91;5102089;28;20059;-81
2023/12/28 03:14:25;;;;;;;5.25;2.75;;;;;;;-143.54;100.00;59916.91;5099399;28;20600;-80
2023/12/28 03:16:50;;;;;;;5.97;3.05;;;;;;;-143.54;100.00;59916.91;5095801;28;20028;-80
2023/12/28 03:19:16;;;;;;;3.72;2.67;;;;;;;-143.54;100.00;59916.91;5098429;28;20039;-81
2023/12/28 03:21:42;;;;;;;4.65;2.78;;;;;;;-143.54;100.00;59916.91;5097030;28;20108;-80
2023/12/28 03:24:07;;;;;;;4.85;3.00;;;;;;;-143.54;100.00;59916.91;5097799;28;20091;-81
2023/12/28 03:26:35;;;;;;;5.80;3.10;;;;;;;-143.54;100.00;59916.91;5103736;28;20073;-80
2023/12/28 03:29:00;;;;;;;6.10;2.90;;;;;;;-143.54;100.00;59916.91;5099564;28;20073;-80
2023/12/28 03:31:25;;;;;;;5.82;3.45;;;;;;;-143.54;100.00;59916.91;5102326;28;20044;-81
2023/12/28 03:33:51;;;;;;;5.22;3.20;;;;;;;-143.54;100.00;59916.91;5104219;28;20433;-80
2023/12/28 03:36:19;;;;;;;4.57;2.67;;;;;;;-143.54;100.00;59916.91;5081741;28;20106;-80
2023/12/28 03:38:45;;;;;;;9.55;2.80;;;;;;;-143.54;100.00;59916.91;5103903;28;20120;-81
2023/12/28 03:41:18;;;;;;;7.43;2.47;;;;;;;-143.54;100.00;59916.91;5096296;28;20124;-81
2023/12/28 03:43:43;;;;;;;9.55;3.15;;;;;;;-143.54;100.00;59916.91;5097732;28;20019;-80
2023/12/28 03:46:09;;;;;;;5.63;2.38;;;;;;;-143.54;100.00;59916.91;5096052;28;20097;-80
2023/12/28 03:48:36;;;;;;;10.48;2.88;;;;;;;-143.54;100.00;59916.91;5103572;28;20417;-80
2023/12/28 03:51:01;;;;;;;9.73;2.60;;;;;;;-143.54;100.00;59916.91;5096956;28;20114;-81
2023/12/28 03:53:27;;;;;;;6.82;2.38;;;;;;;-143.54;100.00;59916.91;5101503;28;20041;-80
2023/12/28 03:55:52;;;;;;;11.40;2.60;;;;;;;-143.54;100.00;59916.91;5107118;28;20028;-80
2023/12/28 03:58:18;;;;;;;5.00;2.03;;;;;;;-143.54;100.00;59916.91;5097901;28;20519;-80
2023/12/28 04:00:43;;;;;;;8.75;2.35;;;;;;;-143.54;100.00;59916.91;5101479;28;20039;-80
2023/12/28 04:03:08;;;;;;;9.30;2.60;;;;;;;-143.54;100.00;59916.91;5098048;28;20395;-81
2023/12/28 04:05:33;;;;;;;5.40;2.17;;;;;;;-143.54;100.00;59916.91;5100438;28;20036;-80
2023/12/28 04:08:00;;;;;;;8.75;2.92;;;;;;;-143.54;100.00;59916.91;5093851;28;20097;-80
2023/12/28 04:10:32;;;;;;;8.20;2.45;;;;;;;-143.54;100.00;59916.91;5099943;28;20061;-80
2023/12/28 04:12:59;;;;;;;6.07;2.50;;;;;;;-143.54;100.00;59916.91;5104814;28;20439;-80
2023/12/28 04:15:25;;;;;;;5.70;2.50;;;;;;;-143.54;100.00;59916.91;5097599;28;20022;-80
2023/12/28 04:17:50;;;;;;;6.38;2.30;;;;;;;-143.54;100.00;59916.91;5101821;28;20129;-80
2023/12/28 04:20:15;;;;;;;7.55;2.83;;;;;;;-143.54;100.00;59916.91;5099940;28;20036;-80
2023/12/28 04:22:43;;;;;;;6.85;2.80;;;;;;;-143.54;100.00;59916.91;5095782;28;20024;-80
2023/12/28 04:25:08;;;;;;;7.93;2.75;;;;;;;-143.54;100.00;59916.91;5100970;28;20024;-81
2023/12/28 04:27:34;;;;;;;8.65;2.63;;;;;;;-143.54;100.00;59916.91;5097851;28;20054;-80
2023/12/28 04:29:59;;;;;;;7.13;2.40;;;;;;;-143.54;100.00;59916.91;5103134;28;20020;-80
2023/12/28 04:32:25;;;;;;;7.35;2.40;;;;;;;-143.54;100.00;59916.91;5097002;28;20043;-80
2023/12/28 04:34:51;;;;;;;7.57;2.50;;;;;;;-143.54;100.00;59916.91;5095046;28;20019;-80
2023/12/28 04:37:16;;;;;;;7.43;2.50;;;;;;;-143.54;100.00;59916.91;5098147;28;20049;-81
2023/12/28 04:39:41;;;;;;;4.75;2.38;;;;;;;-143.54;100.00;59916.91;5094005;28;20471;-80
2023/12/28 04:42:06;;;;;;;8.07;2.65;;;;;;;-143.54;100.00;59916.91;5097857;28;20028;-81
2023/12/28 04:44:32;;;;;;;11.77;2.80;;;;;;;-143.54;100.00;59916.91;5107447;28;20030;-80
2023/12/28 04:46:58;;;;;;;9.48;2.67;;;;;;;-143.54;100.00;59916.91;5098412;28;20032;-81
2023/12/28 04:49:23;;;;;;;7.78;2.78;;;;;;;-143.54;100.00;59916.91;5100113;28;20031;-80
2023/12/28 04:51:48;;;;;;;10.45;3.17;;;;;;;-143.54;100.00;59916.91;5097828;28;20535;-80
2023/12/28 04:54:14;;;;;;;8.48;2.10;;;;;;;-143.54;100.00;59916.91;5099752;28;20016;-80
2023/12/28 04:56:39;;;;;;;7.43;2.40;;;;;;;-143.54;100.00;59916.91;5094062;28;20529;-81
2023/12/28 04:59:04;;;;;;;10.18;2.42;;;;;;;-143.54;100.00;59916.91;5101135;28;20402;-80
2023/12/28 05:01:32;;;;;;;8.63;2.33;;;;;;;-143.54;100.00;59916.91;5092917;28;20028;-80
2023/12/28 05:03:58;;;;;;;7.20;2.88;;;;;;;-143.54;100.00;59916.91;5100958;28;20024;-80
2023/12/28 05:06:23;;;;;;;8.48;2.67;;;;;;;-143.54;100.00;59916.91;5094322;28;20093;-80
2023/12/28 05:08:48;;;;;;;9.27;2.75;;;;;;;-143.54;100.00;59916.91;5095604;28;20084;-80
2023/12/28 05:11:13;;;;;;;11.05;2.85;;;;;;;-143.54;100.00;59916.91;5100950;28;20043;-80
2023/12/28 05:13:39;;;;;;;9.52;3.30;;;;;;;-143.54;100.00;59916.91;5100040;28;20133;-80
2023/12/28 05:16:05;;;;;;;11.90;2.28;;;;;;;-143.54;100.00;59916.91;5094753;28;20020;-80
2023/12/28 05:18:31;;;;;;;7.63;2.40;;;;;;;-143.54;100.00;59916.91;5099785;28;20031;-80
2023/12/28 05:20:56;;;;;;;9.07;2.30;;;;;;;-143.54;100.00;59916.91;5095460;28;20115;-80
2023/12/28 05:23:21;;;;;;;13.40;2.75;;;;;;;-143.54;100.00;59916.91;5103017;28;20114;-81
2023/12/28 05:25:48;;;;;;;7.97;2.30;;;;;;;-143.54;100.00;59916.91;5096089;28;20039;-81
2023/12/28 05:28:13;;;;;;;10.50;2.67;;;;;;;-143.54;100.00;59916.91;5102371;28;20360;-80
2023/12/28 05:30:38;;;;;;;9.35;2.80;;;;;;;-143.54;100.00;59916.91;5096122;28;20532;-81
2023/12/28 05:33:04;;;;;;;9.68;3.33;;;;;;;-143.54;100.00;59916.91;5097151;28;20539;-80
2023/12/28 05:35:31;;;;;;;11.27;3.00;;;;;;;-143.54;100.00;59916.91;5092938;28;20032;-80
2023/12/28 05:37:56;;;;;;;8.95;2.72;;;;;;;-143.54;100.00;59916.91;5097996;28;20020;-80
2023/12/28 05:40:21;;;;;;;9.48;2.90;;;;;;;-143.54;100.00;59916.91;5098198;28;20486;-80
2023/12/28 05:42:46;;;;;;;10.20;2.85;;;;;;;-143.54;100.00;59916.91;5100449;28;20053;-80
2023/12/28 05:45:12;;;;;;;19.38;3.15;;;;;;;-143.54;100.00;59916.91;5100450;28;20400;-80
2023/12/28 05:47:37;;;;;;;5.88;2.53;;;;;;;-143.54;100.00;59916.91;5096465;28;20028;-80
2023/12/28 05:50:03;;;;;;;7.35;2.30;;;;;;;-143.54;100.00;59916.91;5099315;28;20077;-80
2023/12/28 05:52:28;;;;;;;12.60;2.63;;;;;;;-143.54;100.00;59916.91;5096155;28;20523;-80
2023/12/28 05:54:56;;;;;;;8.77;2.90;;;;;;;-143.54;100.00;59916.91;5093214;28;20478;-80
2023/12/28 05:57:21;;;;;;;10.02;2.58;;;;;;;-143.54;100.00;59916.91;5094843;28;20028;-82
2023/12/28 05:59:46;;;;;;;12.77;2.63;;;;;;;-143.54;100.00;59916.91;5098703;28;20086;-80
2023/12/28 06:02:12;;;;;;;8.35;2.42;;;;;;;-143.54;100.00;59916.91;5093018;28;20034;-81
2023/12/28 06:04:37;;;;;;;13.60;3.13;;;;;;;-143.54;100.00;59916.91;5099887;28;20074;-80
2023/12/28 06:07:05;;;;;;;12.95;3.40;;;;;;;-143.54;100.00;59916.91;5095929;28;20376;-80
2023/12/28 06:09:31;;;;;;;11.82;2.60;;;;;;;-143.54;100.00;59916.91;5097885;28;20479;-81
2023/12/28 06:11:57;;;;;;;7.25;3.10;;;;;;;-143.54;100.00;59916.91;5078253;28;20020;-80
2023/12/28 06:14:22;;;;;;;10.02;2.58;;;;;;;-143.54;100.00;59916.91;5101296;28;20093;-80
2023/12/28 06:16:47;;;;;;;10.65;2.85;;;;;;;-143.54;100.00;59916.91;5096797;28;20028;-80
2023/12/28 06:19:13;;;;;;;11.98;2.80;;;;;;;-143.54;100.00;59916.91;5100088;28;20024;-81
2023/12/28 06:21:38;;;;;;;9.80;2.53;;;;;;;-143.54;100.00;59916.91;5096958;28;20031;-80
2023/12/28 06:24:03;;;;;;;12.45;3.33;;;;;;;-143.54;100.00;59916.91;5099008;28;20031;-80
2023/12/28 06:26:29;;;;;;;14.23;2.95;;;;;;;-143.54;100.00;59916.91;5097647;28;20424;-80
2023/12/28 06:28:54;;;;;;;10.20;2.38;;;;;;;-143.54;100.00;59916.91;5099496;28;20045;-80
2023/12/28 06:31:20;;;;;;;13.90;2.75;;;;;;;-143.54;100.00;59916.91;5095670;28;20019;-80
2023/12/28 06:33:45;;;;;;;11.02;2.90;;;;;;;-143.54;100.00;59916.91;5100158;28;20035;-80
2023/12/28 06:36:12;;;;;;;8.05;2.45;;;;;;;-143.54;100.00;59916.91;5094256;28;20452;-80
2023/12/28 06:38:37;;;;;;;13.57;2.92;;;;;;;-143.54;100.00;59916.91;5101050;28;20035;-80
2023/12/28 06:41:09;;;;;;;12.38;2.72;;;;;;;-143.54;100.00;59916.91;5094779;28;20016;-80
2023/12/28 06:43:34;;;;;;;12.07;2.83;;;;;;;-143.54;100.00;59916.91;5105321;28;20046;-80
2023/12/28 06:46:00;;;;;;;6.40;2.30;;;;;;;-143.54;100.00;59916.91;5096934;28;20365;-80
2023/12/28 06:48:26;;;;;;;14.25;3.22;;;;;;;-143.54;100.00;59916.91;5102965;28;20394;-80
2023/12/28 06:50:51;;;;;;;14.50;2.58;;;;;;;-143.54;100.00;59916.91;5099453;28;20035;-80
2023/12/28 06:53:16;;;;;;;13.15;2.97;;;;;;;-143.54;100.00;59916.91;5099686;28;20391;-80
2023/12/28 06:55:42;;;;;;;15.25;2.88;;;;;;;-143.54;100.00;59916.91;5100989;28;20119;-80
2023/12/28 06:58:07;;;;;;;10.75;2.80;;;;;;;-143.54;100.00;59916.91;5098707;28;20127;-80
2023/12/28 07:00:32;;;;;;;12.77;3.00;;;;;;;-143.54;100.00;59916.91;5101195;28;20032;-80
2023/12/28 07:02:58;;;;;;;9.70;3.00;;;;;;;-143.54;100.00;59916.91;5098631;28;20026;-80
2023/12/28 07:05:23;;;;;;;12.88;2.75;;;;;;;-143.54;100.00;59916.91;5101751;28;20448;-79
2023/12/28 07:07:48;;;;;;;16.25;3.20;;;;;;;-143.54;100.00;59916.91;5098168;28;20032;-80
2023/12/28 07:10:14;;;;;;;11.75;2.47;;;;;;;-143.54;100.00;59916.91;5101801;28;20027;-81
2023/12/28 07:12:39;;;;;;;13.25;3.13;;;;;;;-143.54;100.00;59916.91;5102988;28;20463;-80
2023/12/28 07:15:05;;;;;;;12.45;3.03;;;;;;;-143.54;100.00;59916.91;5100598;28;20473;-80
2023/12/28 07:17:30;;;;;;;12.68;2.80;;;;;;;-143.54;100.00;59916.91;5100270;28;20036;-80
2023/12/28 07:19:57;;;;;;;9.50;2.40;;;;;;;-143.54;100.00;59916.91;5102776;28;20067;-80
2023/12/28 07:22:22;;;;;;;12.93;2.38;;;;;;;-143.54;100.00;59916.91;5098533;28;20047;-80
2023/12/28 07:24:47;;;;;;;14.82;3.53;;;;;;;-143.54;100.00;59916.91;5103879;28;20051;-80
2023/12/28 07:27:12;;;;;;;10.02;2.83;;;;;;;-143.54;100.00;59916.91;5099291;28;20024;-80
2023/12/28 07:29:38;;;;;;;11.95;2.72;;;;;;;-143.54;100.00;59916.91;5101048;28;20032;-80
2023/12/28 07:32:04;;;;;;;8.25;2.70;;;;;;;-143.54;100.00;59916.91;5103443;28;20058;-80
2023/12/28 07:34:29;;;;;;;12.02;3.42;;;;;;;-143.54;100.00;59916.91;5101920;28;20020;-80
2023/12/28 07:36:54;;;;;;;13.63;3.55;;;;;;;-143.54;100.00;59916.91;5098963;28;20361;-80
2023/12/28 07:39:20;;;;;;;11.45;3.35;;;;;;;-143.54;100.00;59916.91;5094751;28;20028;-81
2023/12/28 07:41:45;;;;;;;10.65;2.83;;;;;;;-143.54;100.00;59916.91;5098882;28;20023;-80
2023/12/28 07:44:10;;;;;;;12.43;2.40;;;;;;;-143.54;100.00;59916.91;5095017;28;20483;-80
2023/12/28 07:46:36;;;;;;;15.45;3.92;;;;;;;-143.54;100.00;59916.91;5098031;28;20024;-80
2023/12/28 07:49:01;;;;;;;12.75;3.17;;;;;;;-143.54;100.00;59916.91;5101223;28;20065;-80
2023/12/28 07:51:26;;;;;;;14.15;2.88;;;;;;;-143.54;100.00;59916.91;5094818;28;20031;-80
2023/12/28 07:53:51;;;;;;;12.05;2.80;;;;;;;-143.54;100.00;59916.91;5103728;28;20059;-80
2023/12/28 07:56:17;;;;;;;15.88;3.17;;;;;;;-143.54;100.00;59916.91;5094213;28;20035;-80
2023/12/28 07:58:42;;;;;;;16.95;3.22;;;;;;;-143.54;100.00;59916.91;5094037;28;20028;-80
2023/12/28 08:01:11;;;;;;;15.65;3.25;;;;;;;-143.54;100.00;59916.91;5094527;28;20081;-80
2023/12/28 08:03:36;;;;;;;12.35;2.72;;;;;;;-143.54;100.00;59916.91;5098966;28;20058;-80
2023/12/28 08:06:01;;;;;;;11.65;3.00;;;;;;;-143.54;100.00;59916.91;5098429;28;20425;-80
2023/12/28 08:08:27;;;;;;;16.50;3.03;;;;;;;-143.54;100.00;59916.91;5097022;28;20020;-80
2023/12/28 08:10:52;;;;;;;16.00;2.40;;;;;;;-143.54;100.00;59916.91;5095838;28;20016;-80
2023/12/28 08:13:17;;;;;;;11.85;2.80;;;;;;;-143.54;100.00;59916.91;5095895;28;20375;-80
2023/12/28 08:15:42;;;;;;;10.65;3.38;;;;;;;-143.54;100.00;59916.91;5094288;28;20028;-80
2023/12/28 08:18:08;;;;;;;15.75;3.53;;;;;;;-143.54;100.00;59916.91;5103762;28;20386;-80
2023/12/28 08:20:33;;;;;;;13.85;2.63;;;;;;;-143.54;100.00;59916.91;5096417;28;20103;-80
2023/12/28 08:22:58;;;;;;;15.25;3.88;;;;;;;-143.54;100.00;59916.91;5102417;28;20024;-81
2023/12/28 08:25:23;;;;;;;10.00;2.60;;;;;;;-143.54;100.00;59916.91;5097809;28;20028;-81
2023/12/28 08:27:49;;;;;;;11.35;2.45;;;;;;;-143.54;100.00;59916.91;5096107;28;20099;-80
2023/12/28 08:30:14;;;;;;;13.23;2.90;;;;;;;-143.54;100.00;59916.91;5100420;28;20035;-80
2023/12/28 08:32:39;;;;;;;9.70;3.17;;;;;;;-143.54;100.00;59916.91;5096648;28;20024;-80
2023/12/28 08:35:06;;;;;;;12.15;2.83;;;;;;;-143.54;100.00;59916.91;5102114;28;20032;-81
2023/12/28 08:37:31;;;;;;;13.23;3.00;;;;;;;-143.54;100.00;59916.91;5097379;28;20139;-80
2023/12/28 08:39:57;;;;;;;14.15;3.10;;;;;;;-143.54;100.00;59916.91;5093594;28;20511;-80
2023/12/28 08:42:24;;;;;;;10.88;2.60;;;;;;;-143.54;100.00;59916.91;5097212;28;20016;-80
2023/12/28 08:44:50;;;;;;;12.45;2.88;;;;;;;-143.54;100.00;59916.91;5100247;28;20085;-80
2023/12/28 08:47:15;;;;;;;10.25;2.65;;;;;;;-143.54;100.00;59916.91;5096879;28;20468;-80
2023/12/28 08:49:41;;;;;;;14.88;2.90;;;;;;;-143.54;100.00;59916.91;5099947;28;20118;-81
2023/12/28 08:52:06;;;;;;;12.75;2.60;;;;;;;-143.54;100.00;59916.91;5095247;28;20051;-80
2023/12/28 08:54:32;;;;;;;13.27;3.25;;;;;;;-143.54;100.00;59916.91;5093210;28;20052;-81
2023/12/28 08:56:57;;;;;;;14.73;2.78;;;;;;;-143.54;100.00;59916.91;5097289;28;20020;-80
2023/12/28 08:59:22;;;;;;;10.15;2.90;;;;;;;-143.54;100.00;59916.91;5098153;28;20090;-81
2023/12/28 09:01:47;;;;;;;13.82;3.22;;;;;;;-143.54;100.00;59916.91;5093308;28;20053;-80
2023/12/28 09:04:14;;;;;;;19.60;3.22;;;;;;;-143.54;100.00;59916.91;5094365;28;20089;-80
2023/12/28 09:06:39;;;;;;;19.02;3.17;;;;;;;-143.54;100.00;59916.91;5092223;28;20111;-80
2023/12/28 09:09:05;;;;;;;13.13;2.75;;;;;;;-143.54;100.00;59916.91;5101623;28;20107;-80
2023/12/28 09:11:31;;;;;;;11.68;2.50;;;;;;;-143.54;100.00;59916.91;5092833;28;20032;-80
2023/12/28 09:13:56;;;;;;;13.30;2.88;;;;;;;-143.54;100.00;59916.91;5099951;28;20031;-80
2023/12/28 09:16:21;;;;;;;14.13;3.05;;;;;;;-143.54;100.00;59916.91;5098571;28;20082;-80
2023/12/28 09:18:47;;;;;;;13.57;2.50;;;;;;;-143.54;100.00;59916.91;5092798;28;20050;-80
2023/12/28 09:21:12;;;;;;;10.65;3.10;;;;;;;-143.54;100.00;59916.91;5096924;28;20027;-80
2023/12/28 09:23:38;;;;;;;14.65;3.00;;;;;;;-143.54;100.00;59916.91;5100773;28;20073;-80
2023/12/28 09:26:04;;;;;;;12.43;2.78;;;;;;;-143.54;100.00;59916.91;5095399;28;20379;-80
2023/12/28 09:28:30;;;;;;;11.05;2.88;;;;;;;-143.54;100.00;59916.91;5101639;28;20106;-80
2023/12/28 09:30:56;;;;;;;15.02;3.03;;;;;;;-143.54;100.00;59916.91;5093992;28;20132;-80
2023/12/28 09:33:22;;;;;;;10.18;2.67;;;;;;;-143.54;100.00;59916.91;5099080;28;20110;-80
2023/12/28 09:35:47;;;;;;;14.25;2.35;;;;;;;-143.54;100.00;59916.91;5094540;28;20056;-80
2023/12/28 09:38:13;;;;;;;11.77;2.80;;;;;;;-143.54;100.00;59916.91;5097667;28;20031;-81
2023/12/28 09:40:42;;;;;;;15.95;3.17;;;;;;;-143.54;100.00;59916.91;5096778;28;20032;-80
2023/12/28 09:43:19;;;;;;;19.42;3.03;;;;;;;-143.54;100.00;59916.91;5095389;28;20049;-81
2023/12/28 09:45:47;;;;;;;12.52;2.20;;;;;;;-143.54;100.00;59916.91;5097024;28;20036;-81
2023/12/28 09:48:15;;;;;;;15.25;2.97;;;;;;;-143.54;100.00;59916.91;5091750;28;20024;-80
2023/12/28 09:50:41;;;;;;;14.15;3.55;;;;;;;-143.54;100.00;59916.91;5092854;28;20464;-81
2023/12/28 09:53:06;;;;;;;13.45;2.80;;;;;;;-143.54;100.00;59916.91;5095783;28;20107;-80
2023/12/28 09:55:31;;;;;;;11.82;2.80;;;;;;;-143.54;100.00;59916.91;5098574;28;20459;-80
2023/12/28 09:57:59;;;;;;;15.68;3.42;;;;;;;-143.54;100.00;59916.91;5095490;28;20050;-80
2023/12/28 10:00:24;;;;;;;13.35;2.92;;;;;;;-143.54;100.00;59916.91;5099079;28;20039;-81
2023/12/28 10:02:49;;;;;;;14.73;3.05;;;;;;;-143.54;100.00;59916.91;5095462;28;20017;-81
2023/12/28 10:05:15;;;;;;;13.75;3.40;;;;;;;-143.54;100.00;59916.91;5093985;28;20410;-80
2023/12/28 10:07:43;;;;;;;12.90;3.08;;;;;;;-143.54;100.00;59916.91;5098986;28;20514;-80
2023/12/28 10:10:09;;;;;;;13.48;3.33;;;;;;;-143.54;100.00;59916.91;5100372;28;20023;-80
2023/12/28 10:12:35;;;;;;;9.38;2.60;;;;;;;-143.54;100.00;59916.91;5093188;28;20028;-81
2023/12/28 10:15:00;;;;;;;13.68;3.08;;;;;;;-143.54;100.00;59916.91;5096091;28;20111;-80
2023/12/28 10:17:26;;;;;;;14.98;4.07;;;;;;;-143.54;100.00;59916.91;5100190;28;20166;-81
2023/12/28 10:19:52;;;;;;;14.68;3.38;;;;;;;-143.54;100.00;59916.91;5105060;28;20095;-81
2023/12/28 10:22:18;;;;;;;15.40;3.10;;;;;;;-143.54;100.00;59916.91;5100497;28;20024;-80
2023/12/28 10:24:44;;;;;;;10.68;2.60;;;;;;;-143.54;100.00;59916.91;5102395;28;20044;-80
2023/12/28 10:27:09;;;;;;;15.90;3.13;;;;;;;-143.54;100.00;59916.91;5100375;28;20035;-80
2023/12/28 10:29:34;;;;;;;13.88;3.17;;;;;;;-143.54;100.00;59916.91;5111347;28;20398;-80
2023/12/28 10:32:00;;;;;;;16.02;3.05;;;;;;;-143.54;100.00;59916.91;5095438;28;20028;-80
2023/12/28 10:34:26;;;;;;;13.13;3.08;;;;;;;-143.54;100.00;59916.91;5103091;28;20240;-80
2023/12/28 10:36:52;;;;;;;12.57;3.15;;;;;;;-143.54;100.00;59916.91;5100804;28;20031;-80
2023/12/28 10:39:19;;;;;;;13.45;3.13;;;;;;;-143.54;100.00;59916.91;5101465;28;20536;-80
2023/12/28 10:41:49;;;;;;;14.68;3.20;;;;;;;-143.54;100.00;59916.91;5100741;28;20057;-80
2023/12/28 10:44:19;;;;;;;10.95;2.70;;;;;;;-143.54;100.00;59916.91;5102092;28;20089;-80
2023/12/28 10:46:47;;;;;;;13.27;3.25;;;;;;;-143.54;100.00;59916.91;5097027;28;20353;-80
2023/12/28 10:49:16;;;;;;;14.57;2.97;;;;;;;-143.54;100.00;59916.91;5094479;28;20051;-80
2023/12/28 10:51:52;;;;;;;18.65;3.03;;;;;;;-143.54;100.00;59916.91;5098227;28;20020;-80
2023/12/28 10:54:20;;;;;;;16.20;3.60;;;;;;;-143.54;100.00;59916.91;5087081;28;20040;-80
2023/12/28 10:56:50;;;;;;;18.13;3.97;;;;;;;-143.54;100.00;59916.91;5098850;28;20081;-80
2023/12/28 10:59:32;;;;;;;16.73;2.88;;;;;;;-143.54;100.00;59916.91;5101795;28;20036;-81